Time;durP1;ratioP1;P1;durP2;ratioP2;P2;SDS_P1;SDS_P2;PMS_P1;PMS_P2;Temp;Humidity;BMP_temperature;BMP_pressure;BME280_temperature;BME280_humidity;BME280_pressure;Samples;Min_cycle;Max_cycle;Signal;HPM_P1;HPM_P2
2022/09/09 00:02:11;;;;;;;1.80;1.27;;;18.30;61.60;;;20.91;43.86;97239.44;5065224;28;20052;-60
2022/09/09 00:04:41;;;;;;;2.92;1.88;;;18.30;61.40;;;20.94;43.98;97251.69;5066323;28;20047;-60
2022/09/09 00:07:50;;;;;;;3.47;1.60;;;18.30;61.30;;;20.90;43.88;97250.50;5066036;28;20281;-60
2022/09/09 00:10:24;;;;;;;3.38;1.42;;;18.30;61.30;;;20.95;43.71;97253.31;5066123;28;20046;-60
2022/09/09 00:13:29;;;;;;;2.80;1.20;;;18.30;61.20;;;20.96;43.71;97244.16;5063558;28;20066;-60
2022/09/09 00:16:19;;;;;;;4.15;1.45;;;18.40;60.90;;;20.98;43.86;97240.16;5067125;28;20048;-60
2022/09/09 00:19:18;;;;;;;4.40;1.40;;;18.30;60.80;;;20.96;43.67;97239.56;5067116;28;20417;-60
2022/09/09 00:22:04;;;;;;;3.15;1.58;;;18.40;60.80;;;20.94;43.56;97249.81;5064943;28;20058;-60
2022/09/09 00:24:54;;;;;;;2.60;1.30;;;18.30;61.10;;;20.93;43.97;97234.63;5064446;28;20063;-60
2022/09/09 00:27:27;;;;;;;1.80;0.95;;;18.30;60.70;;;20.94;43.58;97241.69;5065719;28;20084;-60
2022/09/09 00:30:22;;;;;;;2.15;1.30;;;18.40;60.70;;;20.97;43.78;97234.97;5064300;28;20063;-60
2022/09/09 00:33:04;;;;;;;4.95;1.42;;;18.40;60.30;;;20.95;43.58;97240.63;5065564;28;20226;-60
2022/09/09 00:35:38;;;;;;;3.53;1.30;;;18.40;60.50;;;20.99;43.76;97239.06;5066561;28;20052;-60
2022/09/09 00:38:27;;;;;;;1.85;1.20;;;18.40;60.40;;;20.94;43.88;97236.28;5064008;28;20060;-60
2022/09/09 00:41:13;;;;;;;2.28;1.70;;;18.40;60.40;;;20.91;43.88;97241.34;5046826;28;20049;-60
2022/09/09 00:43:42;;;;;;;2.10;1.50;;;18.30;61.00;;;20.90;44.08;97237.81;5049586;28;20901;-60
2022/09/09 00:46:50;;;;;;;2.33;1.40;;;18.30;61.00;;;20.92;43.85;97242.97;5064393;28;20060;-60
2022/09/09 00:49:46;;;;;;;2.83;1.60;;;18.30;61.20;;;20.94;43.68;97236.28;5064451;28;20067;-61
2022/09/09 00:52:45;;;;;;;3.63;1.42;;;18.30;61.10;;;20.95;43.82;97240.63;5063535;28;20064;-60
2022/09/09 00:55:21;;;;;;;4.55;1.27;;;18.30;60.80;;;20.95;43.82;97250.63;5049053;28;20269;-60
2022/09/09 00:57:52;;;;;;;4.63;2.05;;;18.30;60.90;;;20.94;43.75;97244.41;5065038;28;20052;-60
2022/09/09 01:00:51;;;;;;;3.97;1.77;;;18.30;61.20;;;20.94;43.75;97236.28;5063562;28;20362;-60
2022/09/09 01:03:37;;;;;;;1.83;1.38;;;18.20;61.10;;;21.02;43.60;97244.03;5065886;28;20060;-60
2022/09/09 01:06:26;;;;;;;2.95;1.42;;;18.30;61.50;;;21.00;43.53;97232.63;5066229;28;20055;-60
2022/09/09 01:09:27;;;;;;;1.83;1.40;;;18.30;61.20;;;20.99;43.58;97233.66;5064643;28;20063;-60
2022/09/09 01:12:24;;;;;;;1.60;1.33;;;18.30;61.10;;;20.96;43.82;97236.88;5065754;28;20044;-60
2022/09/09 01:15:30;;;;;;;4.10;1.58;;;18.30;60.90;;;20.95;43.86;97235.19;5063777;28;20061;-60
2022/09/09 01:18:13;;;;;;;2.13;1.33;;;18.30;61.00;;;20.96;43.86;97233.34;5051189;28;20056;-60
2022/09/09 01:21:06;;;;;;;5.07;1.85;;;18.30;60.80;;;20.92;43.63;97240.25;5064603;28;20359;-60
2022/09/09 01:23:42;;;;;;;5.90;1.35;;;18.30;60.70;;;20.90;43.92;97240.53;5063530;28;20061;-60
2022/09/09 01:26:39;;;;;;;;;;;18.30;61.10;;;20.99;44.01;97240.97;5063451;28;20389;-60
2022/09/09 01:29:18;;;;;;;2.42;1.50;;;18.30;61.60;;;20.92;43.64;97243.81;5049760;28;19922;-60
2022/09/09 01:31:56;;;;;;;3.50;1.83;;;18.20;61.50;;;20.88;43.95;97247.22;5063260;28;20056;-60
2022/09/09 01:34:36;;;;;;;2.70;1.60;;;18.30;61.50;;;20.83;44.23;97253.34;5063318;28;20062;-60
2022/09/09 01:37:09;;;;;;;1.52;1.38;;;18.20;61.70;;;20.83;43.98;97251.44;5064301;28;20041;-60
2022/09/09 01:39:39;;;;;;;;;;;18.20;61.70;;;20.95;43.88;97250.63;5048968;28;20416;-60
2022/09/09 01:42:15;;;;;;;5.00;1.40;;;18.20;62.20;;;20.95;44.05;97258.75;5065465;28;19924;-60
2022/09/09 01:44:44;;;;;;;3.25;1.50;;;18.20;62.20;;;20.92;44.00;97251.09;5063646;28;20048;-60
2022/09/09 01:47:14;;;;;;;3.70;1.88;;;18.10;63.20;;;20.91;44.16;97252.97;5067590;28;20057;-60
2022/09/09 01:50:03;;;;;;;2.40;1.63;;;18.10;62.60;;;20.92;44.20;97251.09;5067298;28;20075;-60
2022/09/09 01:52:40;;;;;;;2.70;1.45;;;18.10;62.80;;;20.93;44.12;97263.56;5066750;28;20067;-60
2022/09/09 01:55:12;;;;;;;2.13;1.52;;;18.10;63.20;;;20.90;44.59;97274.84;5035260;28;20056;-60
2022/09/09 01:58:04;;;;;;;2.63;1.27;;;18.10;63.30;;;20.87;44.72;97256.41;5067239;28;20686;-60
2022/09/09 02:00:37;;;;;;;4.72;1.88;;;18.10;64.40;;;20.78;44.85;97264.88;5051267;28;20061;-60
2022/09/09 02:03:29;;;;;;;1.88;1.13;;;18.00;64.20;;;20.59;45.48;97257.91;5051213;28;20052;-60
2022/09/09 02:06:20;;;;;;;10.40;2.25;;;18.00;64.90;;;20.56;45.80;97251.06;5051434;28;20054;-60
2022/09/09 02:08:56;;;;;;;3.50;1.15;;;17.80;65.30;;;20.58;45.71;97259.78;5068367;28;20056;-60
2022/09/09 02:11:27;;;;;;;1.00;0.85;;;17.90;65.90;;;20.65;46.15;97257.81;5066385;28;20262;-60
2022/09/09 02:14:16;;;;;;;1.83;1.00;;;17.90;66.30;;;20.42;46.78;97260.47;5050938;28;20056;-60
2022/09/09 02:17:01;;;;;;;2.23;1.20;;;17.70;67.60;;;20.47;46.60;97255.19;5052280;28;20075;-60
2022/09/09 02:19:55;;;;;;;2.08;1.45;;;17.70;68.20;;;20.46;46.58;97267.06;5053910;28;20596;-60
2022/09/09 02:22:39;;;;;;;2.22;0.90;;;17.70;69.00;;;20.32;46.87;97266.47;5052603;28;20044;-60
2022/09/09 02:25:11;;;;;;;2.30;1.10;;;17.50;69.30;;;20.26;47.17;97276.31;5051967;28;20055;-60
2022/09/09 02:27:43;;;;;;;1.75;1.15;;;17.40;70.10;;;20.29;47.21;97272.31;5067146;28;20400;-60
2022/09/09 02:30:12;;;;;;;2.78;1.20;;;17.40;70.40;;;20.25;47.31;97252.22;5049700;28;20059;-60
2022/09/09 02:32:52;;;;;;;2.72;1.70;;;17.40;71.00;;;20.22;47.49;97248.13;5051435;28;20364;-60
2022/09/09 02:35:26;;;;;;;1.67;1.20;;;17.30;71.10;;;20.22;47.19;97258.06;5051136;28;20396;-60
2022/09/09 02:37:59;;;;;;;2.85;1.02;;;17.40;71.10;;;20.24;47.16;97253.28;5050351;28;20060;-60
2022/09/09 02:40:27;;;;;;;4.50;1.63;;;17.30;70.80;;;20.25;47.16;97252.22;5066440;28;20419;-60
2022/09/09 02:43:00;;;;;;;1.83;1.10;;;17.40;70.30;;;20.25;47.23;97244.94;5065974;28;20061;-60
2022/09/09 02:45:49;;;;;;;3.42;1.55;;;17.30;70.50;;;20.30;47.00;97246.94;5066765;28;20059;-60
2022/09/09 02:48:45;;;;;;;3.45;1.30;;;17.40;70.40;;;20.33;46.96;97230.25;5051111;28;20058;-60
2022/09/09 02:51:43;;;;;;;1.90;0.98;;;17.50;70.50;;;20.32;47.09;97231.31;5065757;28;20078;-60
2022/09/09 02:54:31;;;;;;;2.47;0.90;;;17.40;70.40;;;20.32;47.05;97225.09;5065824;28;20266;-60
2022/09/09 02:57:11;;;;;;;2.92;1.10;;;17.50;70.60;;;20.31;47.19;97226.16;5050297;28;20059;-60
2022/09/09 02:59:41;;;;;;;0.98;0.82;;;17.40;70.60;;;20.20;47.38;97217.78;5050927;28;20049;-60
2022/09/09 03:02:11;;;;;;;4.35;1.33;;;17.20;71.30;;;20.14;47.55;97215.19;5065635;28;20061;-60
2022/09/09 03:04:44;;;;;;;1.63;1.30;;;17.10;71.80;;;20.10;47.88;97224.81;5066899;28;20049;-60
2022/09/09 03:07:13;;;;;;;3.05;1.00;;;17.10;72.00;;;20.14;47.72;97228.69;5049810;28;20234;-60
2022/09/09 03:09:42;;;;;;;1.75;1.13;;;17.10;72.10;;;20.04;47.66;97229.28;5049889;28;20067;-60
2022/09/09 03:12:11;;;;;;;2.05;1.00;;;17.00;72.30;;;19.99;47.76;97226.47;5065185;28;20366;-60
2022/09/09 03:14:40;;;;;;;2.80;0.90;;;17.00;72.60;;;19.97;47.62;97228.56;5064516;28;20052;-60
2022/09/09 03:17:09;;;;;;;2.22;1.05;;;17.00;72.60;;;19.91;47.73;97229.47;5066305;28;20246;-60
2022/09/09 03:19:43;;;;;;;2.45;0.95;;;16.90;72.70;;;19.85;47.88;97223.94;5065837;28;20049;-61
2022/09/09 03:22:13;;;;;;;4.95;1.95;;;16.90;73.30;;;19.79;48.09;97221.34;5063960;28;20044;-60
2022/09/09 03:24:42;;;;;;;2.15;1.30;;;16.80;73.70;;;19.78;48.12;97222.41;5051163;28;20238;-60
2022/09/09 03:27:10;;;;;;;1.15;1.05;;;16.80;73.50;;;19.73;48.10;97216.84;5067779;28;20052;-60
2022/09/09 03:29:39;;;;;;;3.42;1.00;;;16.80;73.20;;;19.65;48.25;97221.50;5048971;28;20066;-60
2022/09/09 03:32:12;;;;;;;3.92;1.25;;;16.70;74.10;;;19.60;48.56;97223.22;5066062;28;20067;-60
2022/09/09 03:34:40;;;;;;;3.22;1.10;;;16.60;75.00;;;19.54;48.50;97233.09;5067685;28;20052;-60
2022/09/09 03:37:11;;;;;;;3.65;0.98;;;16.50;75.60;;;19.48;48.60;97234.84;5065949;28;20051;-60
2022/09/09 03:39:39;;;;;;;2.13;1.00;;;16.50;75.90;;;19.48;48.68;97229.44;5049112;28;20366;-60
2022/09/09 03:42:12;;;;;;;3.17;1.33;;;16.50;75.70;;;19.50;48.75;97237.28;5062660;28;20059;-60
2022/09/09 03:44:41;;;;;;;2.90;1.20;;;16.50;75.50;;;19.52;48.47;97237.88;5049899;28;20349;-60
2022/09/09 03:47:09;;;;;;;3.15;1.40;;;16.60;75.10;;;19.44;48.68;97236.34;5048699;28;20245;-60
2022/09/09 03:49:38;;;;;;;1.65;0.90;;;16.50;75.20;;;19.40;48.86;97239.72;5049287;28;20056;-60
2022/09/09 03:52:07;;;;;;;2.20;1.10;;;16.40;75.60;;;19.41;48.63;97242.19;5065252;28;20052;-60
2022/09/09 03:54:35;;;;;;;1.13;0.75;;;16.50;75.50;;;19.39;48.75;97243.47;5064613;28;20188;-60
2022/09/09 03:57:04;;;;;;;3.80;1.48;;;16.50;75.30;;;19.39;48.73;97232.69;5066139;28;20354;-60
2022/09/09 03:59:32;;;;;;;1.67;1.00;;;16.50;75.20;;;19.38;48.78;97239.94;5048913;28;20052;-60
2022/09/09 04:02:00;;;;;;;1.60;1.00;;;16.50;75.00;;;19.43;48.76;97244.66;5064816;28;20060;-60
2022/09/09 04:04:28;;;;;;;3.42;1.10;;;16.50;74.80;;;19.44;48.56;97243.59;5064871;28;20044;-60
2022/09/09 04:06:57;;;;;;;1.77;1.00;;;16.50;74.50;;;19.43;48.54;97248.19;5050281;28;20056;-60
2022/09/09 04:09:24;;;;;;;3.20;1.20;;;16.60;74.00;;;19.42;48.51;97248.41;5048451;28;20055;-60
2022/09/09 04:11:53;;;;;;;2.70;0.90;;;16.60;73.70;;;19.43;48.34;97240.06;5064601;28;20052;-60
2022/09/09 04:14:21;;;;;;;2.33;1.10;;;16.70;73.40;;;19.42;48.43;97243.81;5048111;28;20064;-60
2022/09/09 04:16:49;;;;;;;2.70;1.40;;;16.60;73.40;;;19.44;48.42;97239.03;5066782;28;20052;-60
2022/09/09 04:19:17;;;;;;;1.42;0.73;;;16.60;73.30;;;19.48;48.36;97242.94;5065528;28;20052;-60
2022/09/09 04:21:51;;;;;;;3.17;1.00;;;16.70;72.80;;;19.45;48.49;97239.84;5064133;28;20044;-60
2022/09/09 04:24:21;;;;;;;3.85;1.15;;;16.70;72.90;;;19.54;48.21;97241.19;5064751;28;20254;-60
2022/09/09 04:26:50;;;;;;;1.55;1.20;;;16.70;72.80;;;19.55;48.13;97248.22;5064000;28;20056;-60
2022/09/09 04:29:18;;;;;;;1.52;0.93;;;16.70;72.80;;;19.59;48.01;97254.81;5064878;28;20048;-58
2022/09/09 04:31:46;;;;;;;2.10;1.00;;;16.80;72.20;;;19.63;47.87;97249.78;5081207;28;20049;-60
2022/09/09 04:34:13;;;;;;;1.50;1.20;;;16.90;71.70;;;19.63;47.79;97249.78;5066155;28;20052;-60
2022/09/09 04:36:41;;;;;;;1.55;1.27;;;16.90;71.50;;;19.66;48.01;97260.13;5048716;28;20052;-57
2022/09/09 04:39:09;;;;;;;2.28;1.10;;;16.90;71.30;;;19.67;47.85;97254.50;5065075;28;20074;-58
2022/09/09 04:41:38;;;;;;;1.85;1.20;;;17.00;71.20;;;19.70;47.73;97255.09;5063740;28;20064;-54
2022/09/09 04:44:06;;;;;;;1.73;1.40;;;17.00;71.10;;;19.68;47.69;97256.16;5065464;28;20048;-56
2022/09/09 04:46:34;;;;;;;1.45;0.90;;;16.90;71.10;;;19.68;47.74;97253.44;5064073;28;20052;-55
2022/09/09 04:49:02;;;;;;;1.58;1.00;;;16.80;71.30;;;19.66;47.68;97262.84;5065200;28;20054;-60
2022/09/09 04:51:33;;;;;;;1.10;1.00;;;16.80;71.30;;;19.71;47.51;97273.75;5048835;28;20052;-60
2022/09/09 04:54:02;;;;;;;2.40;1.08;;;16.90;71.30;;;19.74;47.32;97264.44;5064199;28;20056;-60
2022/09/09 04:56:30;;;;;;;2.85;1.35;;;16.80;70.80;;;19.73;47.30;97276.28;5065352;28;20350;-60
2022/09/09 04:59:02;;;;;;;2.13;1.45;;;16.80;70.90;;;19.73;47.44;97277.09;5047550;28;20062;-62
2022/09/09 05:01:38;;;;;;;2.60;0.95;;;16.90;71.00;;;19.71;47.26;97276.47;5063780;28;20075;-61
2022/09/09 05:04:06;;;;;;;1.85;0.90;;;16.80;71.10;;;19.66;47.57;97281.75;5063663;28;20057;-61
2022/09/09 05:06:36;;;;;;;2.60;1.30;;;16.70;71.80;;;19.59;47.75;97281.00;5065472;28;20062;-60
2022/09/09 05:09:04;;;;;;;1.50;1.25;;;16.60;72.20;;;19.54;47.76;97286.25;5064011;28;20346;-61
2022/09/09 05:11:35;;;;;;;1.30;1.20;;;16.50;72.70;;;19.50;48.03;97285.88;5064425;28;20062;-61
2022/09/09 05:14:11;;;;;;;3.10;1.20;;;16.50;73.20;;;19.52;47.96;97289.16;5064052;28;20064;-60
2022/09/09 05:16:39;;;;;;;2.05;1.27;;;16.50;73.20;;;19.55;47.89;97280.63;5047559;28;20058;-61
2022/09/09 05:19:08;;;;;;;3.80;1.10;;;16.60;72.80;;;19.56;47.69;97287.69;5064200;28;20040;-60
2022/09/09 05:21:54;;;;;;;2.35;1.20;;;16.60;72.10;;;19.63;47.70;97282.19;5052265;28;20059;-61
2022/09/09 05:24:28;;;;;;;1.73;1.40;;;16.70;71.80;;;19.65;47.54;97280.09;5067322;28;20044;-61
2022/09/09 05:26:59;;;;;;;1.25;0.90;;;16.70;71.60;;;19.62;47.49;97285.97;5068334;28;20064;-61
2022/09/09 05:29:28;;;;;;;3.25;1.10;;;16.70;71.20;;;19.64;47.34;97287.38;5067454;28;20529;-61
2022/09/09 05:31:56;;;;;;;2.38;1.60;;;16.80;71.20;;;19.68;47.52;97293.97;5052591;28;20052;-62
2022/09/09 05:34:25;;;;;;;2.53;1.10;;;16.80;71.00;;;19.70;47.41;97298.28;5067338;28;20058;-62
2022/09/09 05:36:53;;;;;;;2.38;1.30;;;16.80;70.60;;;19.70;47.22;97299.13;5068957;28;20226;-61
2022/09/09 05:39:23;;;;;;;2.42;1.10;;;16.80;70.50;;;19.71;47.34;97299.94;5051590;28;20045;-61
2022/09/09 05:41:51;;;;;;;2.92;1.25;;;16.80;70.60;;;19.74;47.36;97286.03;5066959;28;20044;-61
2022/09/09 05:44:19;;;;;;;3.08;1.15;;;16.90;70.60;;;19.77;47.20;97296.38;5051065;28;20392;-61
2022/09/09 05:46:47;;;;;;;2.90;1.27;;;16.90;70.30;;;19.82;47.11;97299.22;5067576;28;20061;-61
2022/09/09 05:49:16;;;;;;;3.78;1.65;;;17.00;70.00;;;19.82;47.17;97299.22;5066291;28;20052;-62
2022/09/09 05:51:44;;;;;;;1.98;1.00;;;17.00;69.70;;;19.85;47.08;97299.59;5066623;28;20250;-61
2022/09/09 05:54:15;;;;;;;2.08;1.40;;;17.00;69.80;;;19.89;46.79;97299.09;5065160;28;20052;-61
2022/09/09 05:56:49;;;;;;;3.15;1.52;;;17.10;69.20;;;19.87;47.01;97299.31;5068930;28;20048;-61
2022/09/09 05:59:19;;;;;;;3.13;1.33;;;17.10;69.30;;;19.90;46.99;97304.28;5050957;28;20052;-61
2022/09/09 06:01:47;;;;;;;2.63;1.10;;;17.20;69.10;;;19.89;46.92;97301.81;5066004;28;20056;-61
2022/09/09 06:04:24;;;;;;;1.77;1.23;;;17.10;69.60;;;19.94;47.01;97302.78;5067020;28;20346;-60
2022/09/09 06:06:53;;;;;;;1.80;1.20;;;17.10;69.50;;;19.99;46.92;97305.63;5066859;28;20048;-59
2022/09/09 06:09:22;;;;;;;1.77;1.30;;;17.20;69.00;;;20.00;46.88;97298.34;5068051;28;20060;-59
2022/09/09 06:11:50;;;;;;;1.45;1.35;;;17.30;68.80;;;19.98;46.63;97301.25;5050272;28;20053;-60
2022/09/09 06:14:20;;;;;;;3.40;1.20;;;17.30;68.30;;;19.96;46.72;97305.25;5067815;28;20079;-59
2022/09/09 06:16:49;;;;;;;3.00;1.27;;;17.20;68.40;;;20.05;46.73;97302.00;5067660;28;20344;-59
2022/09/09 06:19:21;;;;;;;1.95;1.05;;;17.30;68.30;;;20.12;46.55;97303.78;5066038;28;20082;-60
2022/09/09 06:21:50;;;;;;;1.42;1.00;;;17.40;68.40;;;20.11;46.49;97305.66;5065789;28;20408;-59
2022/09/09 06:24:19;;;;;;;1.98;1.50;;;17.40;68.10;;;20.14;46.46;97309.78;5064643;28;20051;-59
2022/09/09 06:26:47;;;;;;;1.67;1.17;;;17.40;68.00;;;20.12;46.67;97304.59;5068665;28;20062;-59
2022/09/09 06:29:22;;;;;;;4.47;1.35;;;17.40;67.80;;;20.11;46.41;97302.13;5051307;28;20060;-59
2022/09/09 06:31:51;;;;;;;2.50;1.30;;;17.40;67.60;;;20.10;46.63;97304.00;5050316;28;20393;-59
2022/09/09 06:34:24;;;;;;;1.33;0.85;;;17.40;67.50;;;20.10;46.48;97309.41;5067116;28;20130;-59
2022/09/09 06:36:58;;;;;;;2.53;1.52;;;17.40;67.60;;;20.08;46.51;97313.41;5065781;28;20060;-60
2022/09/09 06:39:30;;;;;;;4.07;1.50;;;17.40;68.10;;;20.05;46.56;97306.59;5035940;28;20066;-59
2022/09/09 06:41:59;;;;;;;3.00;1.00;;;17.30;68.40;;;20.05;46.93;97315.50;5050791;28;20044;-58
2022/09/09 06:44:45;;;;;;;2.45;1.67;;;17.40;68.50;;;20.13;46.67;97308.13;5069684;28;20237;-59
2022/09/09 06:47:19;;;;;;;3.47;1.25;;;17.40;68.10;;;20.17;46.81;97314.72;5067396;28;20211;-58
2022/09/09 06:49:48;;;;;;;2.55;1.30;;;17.50;68.30;;;20.22;46.61;97309.44;5066008;28;20079;-60
2022/09/09 06:52:18;;;;;;;2.42;1.30;;;17.50;68.10;;;20.33;46.58;97324.03;5065429;28;20059;-59
2022/09/09 06:54:46;;;;;;;2.22;1.20;;;17.70;67.70;;;20.36;46.54;97321.72;5065973;28;20060;-60
2022/09/09 06:57:16;;;;;;;2.22;1.30;;;17.70;67.80;;;20.42;46.42;97322.66;5049404;28;20060;-59
2022/09/09 07:00:06;;;;;;;3.75;1.45;;;17.70;67.60;;;20.45;46.43;97312.22;5053434;28;20061;-58
2022/09/09 07:02:38;;;;;;;2.78;1.13;;;17.80;67.20;;;20.54;46.55;97312.69;5067584;28;20048;-59
2022/09/09 07:05:08;;;;;;;2.83;1.20;;;17.80;67.40;;;20.60;46.37;97319.88;5050695;28;20048;-58
2022/09/09 07:07:36;;;;;;;2.63;1.20;;;17.90;67.60;;;20.67;46.48;97316.28;5066470;28;20130;-59
2022/09/09 07:10:05;;;;;;;3.00;1.63;;;17.90;67.70;;;20.59;46.46;97325.53;5066439;28;20070;-59
2022/09/09 07:12:35;;;;;;;3.00;1.50;;;17.90;67.60;;;20.63;46.21;97322.13;5049065;28;20060;-60
2022/09/09 07:15:03;;;;;;;2.08;1.10;;;17.90;67.50;;;20.60;46.53;97317.19;5066073;28;20054;-59
2022/09/09 07:17:31;;;;;;;2.15;1.17;;;17.90;67.60;;;20.65;46.50;97330.03;5066818;28;20329;-58
2022/09/09 07:20:01;;;;;;;2.38;1.55;;;18.00;67.80;;;20.67;46.41;97333.31;5065668;28;20052;-59
2022/09/09 07:22:29;;;;;;;2.35;1.42;;;18.00;67.70;;;20.63;46.71;97324.84;5068269;28;20062;-60
2022/09/09 07:24:57;;;;;;;5.00;1.55;;;17.90;67.80;;;20.67;46.64;97332.50;5065953;28;20063;-61
2022/09/09 07:27:26;;;;;;;3.08;1.50;;;18.00;67.80;;;20.67;46.56;97321.69;5049387;28;20044;-59
2022/09/09 07:29:54;;;;;;;2.72;1.15;;;18.00;67.90;;;20.67;46.41;97321.69;5064791;28;20362;-61
2022/09/09 07:32:22;;;;;;;2.47;1.23;;;18.00;67.50;;;20.76;46.42;97323.81;5065945;28;20056;-61
2022/09/09 07:34:50;;;;;;;3.55;1.58;;;18.10;67.80;;;20.80;46.44;97326.84;5066678;28;20088;-61
2022/09/09 07:37:18;;;;;;;2.47;1.25;;;18.10;67.60;;;20.77;46.58;97330.84;5064904;28;20086;-59
2022/09/09 07:39:48;;;;;;;3.05;1.60;;;18.10;67.80;;;20.88;46.59;97326.50;5064459;28;20040;-60
2022/09/09 07:42:17;;;;;;;3.45;1.58;;;18.20;68.00;;;20.99;46.71;97332.97;5049005;28;20051;-60
2022/09/09 07:44:45;;;;;;;1.40;1.10;;;18.30;68.10;;;21.10;46.56;97329.44;5064713;28;20048;-60
2022/09/09 07:47:15;;;;;;;4.20;1.77;;;18.40;67.60;;;21.23;46.27;97326.50;5065626;28;20048;-60
2022/09/09 07:49:49;;;;;;;2.65;1.48;;;18.60;67.40;;;21.36;46.48;97322.69;5065379;28;20056;-60
2022/09/09 07:52:22;;;;;;;3.58;1.20;;;18.80;67.00;;;21.46;45.94;97318.59;5065210;28;20075;-60
2022/09/09 07:54:54;;;;;;;2.50;1.05;;;18.80;66.50;;;21.56;45.36;97330.47;5049489;28;20061;-60
2022/09/09 07:57:21;;;;;;;2.78;1.88;;;18.90;65.30;;;21.53;45.86;97319.28;5064338;28;20372;-60
2022/09/09 07:59:52;;;;;;;4.63;1.60;;;19.00;65.60;;;21.47;45.09;97318.34;5065403;28;20059;-60
2022/09/09 08:02:20;;;;;;;4.18;1.42;;;18.90;64.50;;;21.43;45.29;97322.56;5064163;28;20257;-60
2022/09/09 08:04:48;;;;;;;1.85;1.15;;;18.90;64.50;;;21.46;45.03;97324.84;5064150;28;20056;-60
2022/09/09 08:07:17;;;;;;;4.03;1.80;;;18.90;64.40;;;21.47;45.52;97331.88;5048995;28;20497;-60
2022/09/09 08:09:51;;;;;;;2.15;1.48;;;18.90;64.50;;;21.47;45.00;97323.75;5063578;28;20335;-60
2022/09/09 08:12:26;;;;;;;3.20;1.35;;;18.90;64.20;;;21.41;45.32;97317.38;5065539;28;20056;-60
2022/09/09 08:14:54;;;;;;;3.22;1.48;;;18.90;63.80;;;21.45;44.99;97306.94;5049413;28;20062;-60
2022/09/09 08:17:24;;;;;;;2.72;1.33;;;18.90;64.30;;;21.49;45.46;97327.06;5065482;28;20052;-60
2022/09/09 08:19:54;;;;;;;2.10;1.48;;;18.90;64.50;;;21.54;45.19;97338.00;5048253;28;20051;-60
2022/09/09 08:22:26;;;;;;;4.40;1.58;;;19.00;64.60;;;21.69;45.38;97355.63;5064603;28;20255;-60
2022/09/09 08:24:54;;;;;;;4.00;1.48;;;19.20;64.80;;;21.72;44.82;97353.25;5048098;28;20049;-61
2022/09/09 08:27:24;;;;;;;3.95;1.27;;;19.20;63.80;;;21.73;45.00;97356.78;5066239;28;20258;-60
2022/09/09 08:29:53;;;;;;;2.85;1.20;;;19.30;63.50;;;21.75;44.76;97344.66;5064882;28;20052;-60
2022/09/09 08:32:20;;;;;;;4.78;1.40;;;19.30;63.40;;;21.72;44.58;97347.84;5048685;28;20052;-61
2022/09/09 08:34:49;;;;;;;4.35;1.45;;;19.30;62.90;;;21.80;44.65;97338.50;5065897;28;20063;-59
2022/09/09 08:37:23;;;;;;;2.03;1.30;;;19.30;62.90;;;21.95;44.35;97327.97;5065073;28;20053;-61
2022/09/09 08:39:51;;;;;;;2.60;1.20;;;19.50;62.90;;;21.97;44.46;97315.00;5066356;28;20060;-61
2022/09/09 08:42:49;;;;;;;3.38;1.15;;;19.60;62.00;;;21.96;44.00;97315.25;5064711;28;20063;-61
2022/09/09 08:45:34;;;;;;;4.78;2.10;;;19.50;60.80;;;22.06;44.36;97339.00;5065592;28;20045;-60
2022/09/09 08:48:52;;;;;;;2.38;1.60;;;19.50;61.70;;;21.97;44.02;97342.09;5049079;28;20049;-60
2022/09/09 08:51:20;;;;;;;4.32;1.20;;;19.50;60.70;;;22.03;44.26;97340.31;5057568;28;20343;-60
2022/09/09 08:53:51;;;;;;;1.65;1.10;;;19.60;61.40;;;22.06;43.80;97334.41;5065698;28;20048;-61
2022/09/09 08:56:27;;;;;;;4.47;1.50;;;19.60;61.30;;;21.89;44.31;97339.78;5054180;28;20052;-61
2022/09/09 08:59:02;;;;;;;2.90;1.40;;;19.60;61.50;;;22.00;44.18;97336.22;5052859;28;20053;-61
2022/09/09 09:01:50;;;;;;;2.50;1.38;;;19.50;61.30;;;22.02;44.20;97334.09;5054004;28;20070;-60
2022/09/09 09:04:58;;;;;;;4.80;1.73;;;19.60;61.60;;;22.03;43.77;97343.84;5069190;28;20436;-60
2022/09/09 09:07:58;;;;;;;3.97;1.40;;;19.60;61.30;;;22.12;43.90;97347.00;5069363;28;20146;-61
2022/09/09 09:10:50;;;;;;;3.25;1.77;;;19.60;61.10;;;22.16;44.07;97345.44;5069610;28;20063;-60
2022/09/09 09:13:31;;;;;;;2.00;1.27;;;19.70;61.20;;;22.30;43.33;97347.91;5068495;28;20125;-61
2022/09/09 09:16:38;;;;;;;1.55;1.10;;;19.80;59.30;;;22.41;42.96;97339.69;5068045;28;20605;-61
2022/09/09 09:19:15;;;;;;;2.28;1.20;;;20.00;58.00;;;22.55;42.92;97332.06;5068074;28;20055;-61
2022/09/09 09:22:29;;;;;;;2.40;1.00;;;20.10;58.50;;;22.45;42.34;97321.03;5052184;28;20040;-61
2022/09/09 09:25:08;;;;;;;2.30;1.27;;;20.20;58.30;;;22.68;41.65;97328.22;5067826;28;20365;-61
2022/09/09 09:28:00;;;;;;;1.52;1.25;;;20.20;56.90;;;22.68;41.07;97324.66;5069331;28;20047;-61
2022/09/09 09:30:41;;;;;;;1.33;1.10;;;20.30;55.70;;;22.73;41.00;97328.28;5067024;28;20059;-61
2022/09/09 09:33:32;;;;;;;2.67;1.50;;;20.30;54.80;;;22.76;41.05;97333.22;5052679;28;20233;-61
2022/09/09 09:36:02;;;;;;;1.77;1.17;;;20.40;55.00;;;22.76;39.45;97324.25;5050868;28;20052;-61
2022/09/09 09:38:30;;;;;;;2.30;1.35;;;20.30;54.00;;;22.72;40.09;97323.09;5052762;28;20513;-60
2022/09/09 09:41:38;;;;;;;4.80;1.70;;;20.40;54.40;;;22.87;39.96;97317.09;5067188;28;20064;-61
2022/09/09 09:44:28;;;;;;;7.22;1.70;;;20.40;53.60;;;22.90;40.08;97309.28;5049236;28;20056;-61
2022/09/09 09:47:21;;;;;;;;;;;20.40;53.70;;;23.15;40.19;97314.28;5054436;28;20052;-61
2022/09/09 09:50:02;;;;;;;4.13;1.67;;;20.50;54.30;;;23.12;39.77;97303.91;5051636;28;20206;-61
2022/09/09 09:52:36;;;;;;;2.22;1.60;;;20.50;55.10;;;23.23;39.83;97317.66;5050660;28;20063;-61
2022/09/09 09:55:14;;;;;;;3.00;1.20;;;20.70;54.40;;;23.27;38.28;97311.47;5066288;28;20264;-61
2022/09/09 09:57:44;;;;;;;1.58;1.27;;;20.90;50.20;;;23.53;38.95;97314.50;5051828;28;20372;-61
2022/09/09 10:00:22;;;;;;;2.13;1.30;;;21.20;52.50;;;23.65;38.50;97312.50;5050921;28;20062;-61
2022/09/09 10:03:15;;;;;;;2.40;1.45;;;21.30;50.60;;;23.66;37.33;97299.72;5068125;28;20057;-61
2022/09/09 10:05:46;;;;;;;8.95;2.83;;;21.30;49.70;;;23.08;37.41;97307.38;5053710;28;20285;-61
2022/09/09 10:08:17;;;;;;;2.85;1.58;;;20.90;48.60;;;22.77;39.45;97320.47;5068300;28;20044;-61
2022/09/09 10:11:13;;;;;;;2.35;1.10;;;20.50;53.60;;;22.52;39.93;97313.56;5068109;28;20049;-61
2022/09/09 10:14:03;;;;;;;6.13;1.40;;;20.10;54.80;;;22.20;40.79;97314.06;5068480;28;20243;-61
2022/09/09 10:17:22;;;;;;;1.65;1.13;;;19.80;55.20;;;21.86;40.79;97305.03;5069045;28;20041;-61
2022/09/09 10:20:33;;;;;;;0.93;0.88;;;19.60;55.10;;;22.06;40.44;97307.28;5066696;28;20062;-61
2022/09/09 10:23:43;;;;;;;8.88;1.90;;;19.40;56.20;;;21.94;41.41;97304.63;5066672;28;20274;-61
2022/09/09 10:26:55;;;;;;;3.25;1.48;;;19.40;57.80;;;21.77;42.29;97301.91;5066638;28;20058;-61
2022/09/09 10:29:29;;;;;;;2.80;1.38;;;19.50;57.70;;;22.15;41.79;97296.91;5067477;28;20053;-61
2022/09/09 10:32:09;;;;;;;2.15;1.45;;;19.60;57.70;;;22.08;42.17;97298.94;5067014;28;20048;-61
2022/09/09 10:35:08;;;;;;;2.35;1.20;;;19.70;57.40;;;21.92;42.46;97304.06;5068046;28;20074;-62
2022/09/09 10:38:11;;;;;;;2.22;1.23;;;19.60;58.40;;;21.96;42.37;97304.41;5067102;28;20052;-61
2022/09/09 10:41:20;;;;;;;5.00;1.50;;;19.60;58.20;;;22.17;42.31;97308.31;5068444;28;20053;-61
2022/09/09 10:43:56;;;;;;;4.28;1.52;;;19.70;58.60;;;22.19;42.10;97307.00;5067683;28;20060;-61
2022/09/09 10:47:10;;;;;;;3.35;1.38;;;19.80;57.70;;;22.02;41.39;97303.44;5067926;28;20055;-61
2022/09/09 10:50:06;;;;;;;2.00;1.27;;;19.90;55.10;;;22.00;40.26;97305.56;5067693;28;20052;-61
2022/09/09 10:52:51;;;;;;;2.47;1.63;;;20.00;53.10;;;22.15;40.02;97307.72;5066485;28;20063;-61
2022/09/09 10:55:39;;;;;;;3.85;1.05;;;20.10;52.60;;;21.92;40.15;97325.75;5067995;28;20044;-61
2022/09/09 10:58:51;;;;;;;2.58;0.90;;;20.00;53.10;;;22.10;40.09;97322.03;5067390;28;20235;-61
2022/09/09 11:01:36;;;;;;;1.25;0.88;;;19.90;53.30;;;22.31;39.69;97333.25;5067413;28;20250;-60
2022/09/09 11:04:40;;;;;;;3.67;1.00;;;20.00;53.20;;;22.25;40.20;97342.38;5066012;28;20047;-59